sensor_id;sensor_type;location;lat;lon;timestamp;P1;P2;P0
26720;PMS1003;15950;51.112;6.966;2023-02-10T00:01:07;030;022;
26720;PMS1003;15950;51.112;6.966;2023-02-10T00:04:00;033;023;
26720;PMS1003;15950;51.112;6.966;2023-02-10T00:07:00;029;022;
26720;PMS1003;15950;51.112;6.966;2023-02-10T00:10:00;033;023;
26720;PMS1003;15950;51.112;6.966;2023-02-10T00:13:00;031;022;
26720;PMS1003;15950;51.112;6.966;2023-02-10T00:16:00;033;023;
26720;PMS1003;15950;51.112;6.966;2023-02-10T00:19:00;030;021;
26720;PMS1003;15950;51.112;6.966;2023-02-10T00:22:01;031;023;
26720;PMS1003;15950;51.112;6.966;2023-02-10T00:25:00;030;021;
26720;PMS1003;15950;51.112;6.966;2023-02-10T00:28:00;033;024;
26720;PMS1003;15950;51.112;6.966;2023-02-10T00:34:00;028;021;
26720;PMS1003;15950;51.112;6.966;2023-02-10T00:37:00;034;024;
26720;PMS1003;15950;51.112;6.966;2023-02-10T00:40:00;032;027;
26720;PMS1003;15950;51.112;6.966;2023-02-10T00:43:00;028;020;
26720;PMS1003;15950;51.112;6.966;2023-02-10T00:46:00;035;025;
26720;PMS1003;15950;51.112;6.966;2023-02-10T00:49:00;028;020;
26720;PMS1003;15950;51.112;6.966;2023-02-10T00:52:00;035;027;
26720;PMS1003;15950;51.112;6.966;2023-02-10T00:55:00;039;030;
26720;PMS1003;15950;51.112;6.966;2023-02-10T00:58:00;031;022;
26720;PMS1003;15950;51.112;6.966;2023-02-10T01:01:00;041;029;
26720;PMS1003;15950;51.112;6.966;2023-02-10T01:04:00;037;027;
26720;PMS1003;15950;51.112;6.966;2023-02-10T01:07:00;034;025;
26720;PMS1003;15950;51.112;6.966;2023-02-10T01:10:00;033;025;
26720;PMS1003;15950;51.112;6.966;2023-02-10T01:13:01;034;024;
26720;PMS1003;15950;51.112;6.966;2023-02-10T01:16:00;035;025;
26720;PMS1003;15950;51.112;6.966;2023-02-10T01:19:00;030;024;
26720;PMS1003;15950;51.112;6.966;2023-02-10T01:22:00;038;029;
26720;PMS1003;15950;51.112;6.966;2023-02-10T01:25:00;032;027;
26720;PMS1003;15950;51.112;6.966;2023-02-10T01:28:00;038;027;
26720;PMS1003;15950;51.112;6.966;2023-02-10T01:34:00;031;022;
26720;PMS1003;15950;51.112;6.966;2023-02-10T01:37:00;036;026;
26720;PMS1003;15950;51.112;6.966;2023-02-10T01:40:00;033;027;
26720;PMS1003;15950;51.112;6.966;2023-02-10T01:43:00;033;023;
26720;PMS1003;15950;51.112;6.966;2023-02-10T01:46:00;039;028;
26720;PMS1003;15950;51.112;6.966;2023-02-10T01:49:02;042;032;
26720;PMS1003;15950;51.112;6.966;2023-02-10T01:52:05;038;027;
26720;PMS1003;15950;51.112;6.966;2023-02-10T01:55:02;027;019;
26720;PMS1003;15950;51.112;6.966;2023-02-10T01:58:04;032;028;
26720;PMS1003;15950;51.112;6.966;2023-02-10T02:01:00;035;025;
26720;PMS1003;15950;51.112;6.966;2023-02-10T02:04:00;038;027;
26720;PMS1003;15950;51.112;6.966;2023-02-10T02:07:00;037;026;
26720;PMS1003;15950;51.112;6.966;2023-02-10T02:10:00;038;028;
26720;PMS1003;15950;51.112;6.966;2023-02-10T02:13:04;036;027;
26720;PMS1003;15950;51.112;6.966;2023-02-10T02:40:00;029;024;
26720;PMS1003;15950;51.112;6.966;2023-02-10T02:43:00;033;023;
26720;PMS1003;15950;51.112;6.966;2023-02-10T02:52:03;038;027;
26720;PMS1003;15950;51.112;6.966;2023-02-10T02:55:05;033;028;
26720;PMS1003;15950;51.112;6.966;2023-02-10T03:01:02;033;026;
26720;PMS1003;15950;51.112;6.966;2023-02-10T03:04:00;041;029;
26720;PMS1003;15950;51.112;6.966;2023-02-10T03:07:00;031;022;
26720;PMS1003;15950;51.112;6.966;2023-02-10T03:10:00;033;023;
26720;PMS1003;15950;51.112;6.966;2023-02-10T03:13:00;031;022;
26720;PMS1003;15950;51.112;6.966;2023-02-10T03:16:00;033;023;
26720;PMS1003;15950;51.112;6.966;2023-02-10T03:19:00;038;027;
26720;PMS1003;15950;51.112;6.966;2023-02-10T03:22:00;034;024;
26720;PMS1003;15950;51.112;6.966;2023-02-10T03:25:00;034;026;
26720;PMS1003;15950;51.112;6.966;2023-02-10T03:28:00;043;032;
26720;PMS1003;15950;51.112;6.966;2023-02-10T03:31:04;048;036;
26720;PMS1003;15950;51.112;6.966;2023-02-10T03:34:00;032;028;
26720;PMS1003;15950;51.112;6.966;2023-02-10T03:37:00;030;025;
26720;PMS1003;15950;51.112;6.966;2023-02-10T03:40:00;034;024;
26720;PMS1003;15950;51.112;6.966;2023-02-10T03:43:00;037;026;
26720;PMS1003;15950;51.112;6.966;2023-02-10T03:46:00;037;027;
26720;PMS1003;15950;51.112;6.966;2023-02-10T03:49:00;037;028;
26720;PMS1003;15950;51.112;6.966;2023-02-10T03:52:00;035;025;
26720;PMS1003;15950;51.112;6.966;2023-02-10T03:55:00;035;025;
26720;PMS1003;15950;51.112;6.966;2023-02-10T03:58:00;035;028;
26720;PMS1003;15950;51.112;6.966;2023-02-10T04:01:07;035;029;
26720;PMS1003;15950;51.112;6.966;2023-02-10T04:04:01;036;027;
26720;PMS1003;15950;51.112;6.966;2023-02-10T04:07:01;032;023;
26720;PMS1003;15950;51.112;6.966;2023-02-10T04:10:00;036;027;
26720;PMS1003;15950;51.112;6.966;2023-02-10T04:13:00;035;026;
26720;PMS1003;15950;51.112;6.966;2023-02-10T04:19:00;044;033;
26720;PMS1003;15950;51.112;6.966;2023-02-10T04:22:00;034;024;
26720;PMS1003;15950;51.112;6.966;2023-02-10T04:25:00;030;021;
26720;PMS1003;15950;51.112;6.966;2023-02-10T04:28:00;033;024;
26720;PMS1003;15950;51.112;6.966;2023-02-10T04:31:00;035;025;
26720;PMS1003;15950;51.112;6.966;2023-02-10T04:34:00;034;024;
26720;PMS1003;15950;51.112;6.966;2023-02-10T04:37:00;035;028;
26720;PMS1003;15950;51.112;6.966;2023-02-10T04:40:00;033;023;
26720;PMS1003;15950;51.112;6.966;2023-02-10T04:43:00;033;023;
26720;PMS1003;15950;51.112;6.966;2023-02-10T04:46:01;031;022;
26720;PMS1003;15950;51.112;6.966;2023-02-10T04:49:00;037;027;
26720;PMS1003;15950;51.112;6.966;2023-02-10T04:52:00;032;024;
26720;PMS1003;15950;51.112;6.966;2023-02-10T04:55:00;038;027;
26720;PMS1003;15950;51.112;6.966;2023-02-10T04:58:00;035;028;
26720;PMS1003;15950;51.112;6.966;2023-02-10T05:01:00;034;024;
26720;PMS1003;15950;51.112;6.966;2023-02-10T05:04:00;027;021;
26720;PMS1003;15950;51.112;6.966;2023-02-10T05:07:00;030;021;
26720;PMS1003;15950;51.112;6.966;2023-02-10T05:10:00;030;021;
26720;PMS1003;15950;51.112;6.966;2023-02-10T05:13:00;038;031;
26720;PMS1003;15950;51.112;6.966;2023-02-10T05:16:00;033;023;
26720;PMS1003;15950;51.112;6.966;2023-02-10T05:19:00;033;023;
26720;PMS1003;15950;51.112;6.966;2023-02-10T05:22:00;035;029;
26720;PMS1003;15950;51.112;6.966;2023-02-10T05:25:00;040;029;
26720;PMS1003;15950;51.112;6.966;2023-02-10T05:28:00;037;027;
26720;PMS1003;15950;51.112;6.966;2023-02-10T05:31:00;037;026;
26720;PMS1003;15950;51.112;6.966;2023-02-10T05:34:00;031;022;
26720;PMS1003;15950;51.112;6.966;2023-02-10T05:37:00;038;027;
26720;PMS1003;15950;51.112;6.966;2023-02-10T05:40:00;035;026;
26720;PMS1003;15950;51.112;6.966;2023-02-10T05:43:00;043;031;
26720;PMS1003;15950;51.112;6.966;2023-02-10T05:46:00;033;023;
26720;PMS1003;15950;51.112;6.966;2023-02-10T05:49:00;030;023;
26720;PMS1003;15950;51.112;6.966;2023-02-10T05:52:00;042;034;
26720;PMS1003;15950;51.112;6.966;2023-02-10T05:55:00;038;027;
26720;PMS1003;15950;51.112;6.966;2023-02-10T05:58:00;035;025;
26720;PMS1003;15950;51.112;6.966;2023-02-10T06:01:00;036;026;
26720;PMS1003;15950;51.112;6.966;2023-02-10T06:04:00;040;030;
26720;PMS1003;15950;51.112;6.966;2023-02-10T06:07:00;040;029;
26720;PMS1003;15950;51.112;6.966;2023-02-10T06:10:00;031;025;
26720;PMS1003;15950;51.112;6.966;2023-02-10T06:13:00;033;023;
26720;PMS1003;15950;51.112;6.966;2023-02-10T06:16:00;033;023;
26720;PMS1003;15950;51.112;6.966;2023-02-10T06:19:00;034;024;
26720;PMS1003;15950;51.112;6.966;2023-02-10T06:22:00;037;026;
26720;PMS1003;15950;51.112;6.966;2023-02-10T06:25:00;031;022;
26720;PMS1003;15950;51.112;6.966;2023-02-10T06:28:00;041;031;
26720;PMS1003;15950;51.112;6.966;2023-02-10T06:31:00;035;029;
26720;PMS1003;15950;51.112;6.966;2023-02-10T06:34:00;037;028;
26720;PMS1003;15950;51.112;6.966;2023-02-10T06:37:00;030;021;
26720;PMS1003;15950;51.112;6.966;2023-02-10T06:40:00;029;023;
26720;PMS1003;15950;51.112;6.966;2023-02-10T06:43:00;035;027;
26720;PMS1003;15950;51.112;6.966;2023-02-10T06:46:00;035;025;
26720;PMS1003;15950;51.112;6.966;2023-02-10T06:49:00;036;028;
26720;PMS1003;15950;51.112;6.966;2023-02-10T06:52:00;031;022;
26720;PMS1003;15950;51.112;6.966;2023-02-10T06:55:00;035;025;
26720;PMS1003;15950;51.112;6.966;2023-02-10T06:58:00;033;026;
26720;PMS1003;15950;51.112;6.966;2023-02-10T07:01:00;040;031;
26720;PMS1003;15950;51.112;6.966;2023-02-10T07:04:00;035;026;
26720;PMS1003;15950;51.112;6.966;2023-02-10T07:07:00;037;026;
26720;PMS1003;15950;51.112;6.966;2023-02-10T07:10:00;033;026;
26720;PMS1003;15950;51.112;6.966;2023-02-10T07:13:00;034;024;
26720;PMS1003;15950;51.112;6.966;2023-02-10T07:16:00;038;027;
26720;PMS1003;15950;51.112;6.966;2023-02-10T07:19:00;037;026;
26720;PMS1003;15950;51.112;6.966;2023-02-10T07:22:00;037;028;
26720;PMS1003;15950;51.112;6.966;2023-02-10T07:25:00;033;025;
26720;PMS1003;15950;51.112;6.966;2023-02-10T07:28:00;040;030;
26720;PMS1003;15950;51.112;6.966;2023-02-10T07:31:00;041;032;
26720;PMS1003;15950;51.112;6.966;2023-02-10T07:34:00;037;026;
26720;PMS1003;15950;51.112;6.966;2023-02-10T07:37:00;038;027;
26720;PMS1003;15950;51.112;6.966;2023-02-10T07:40:00;037;026;
26720;PMS1003;15950;51.112;6.966;2023-02-10T07:43:00;046;033;
26720;PMS1003;15950;51.112;6.966;2023-02-10T07:46:00;037;027;
26720;PMS1003;15950;51.112;6.966;2023-02-10T07:49:00;040;028;
26720;PMS1003;15950;51.112;6.966;2023-02-10T07:52:00;035;028;
26720;PMS1003;15950;51.112;6.966;2023-02-10T07:55:00;041;031;
26720;PMS1003;15950;51.112;6.966;2023-02-10T07:58:00;043;033;
26720;PMS1003;15950;51.112;6.966;2023-02-10T08:01:04;044;031;
26720;PMS1003;15950;51.112;6.966;2023-02-10T08:04:00;038;027;
26720;PMS1003;15950;51.112;6.966;2023-02-10T08:07:00;036;026;
26720;PMS1003;15950;51.112;6.966;2023-02-10T08:10:00;034;026;
26720;PMS1003;15950;51.112;6.966;2023-02-10T08:13:00;038;027;
26720;PMS1003;15950;51.112;6.966;2023-02-10T08:16:02;034;024;
26720;PMS1003;15950;51.112;6.966;2023-02-10T08:19:00;033;023;
26720;PMS1003;15950;51.112;6.966;2023-02-10T08:22:00;046;036;
26720;PMS1003;15950;51.112;6.966;2023-02-10T08:25:00;038;027;
26720;PMS1003;15950;51.112;6.966;2023-02-10T08:28:00;036;026;
26720;PMS1003;15950;51.112;6.966;2023-02-10T08:31:00;038;030;
26720;PMS1003;15950;51.112;6.966;2023-02-10T08:34:00;035;025;
26720;PMS1003;15950;51.112;6.966;2023-02-10T08:37:00;044;031;
26720;PMS1003;15950;51.112;6.966;2023-02-10T08:40:00;041;029;
26720;PMS1003;15950;51.112;6.966;2023-02-10T08:43:01;036;029;
26720;PMS1003;15950;51.112;6.966;2023-02-10T08:46:00;045;032;
26720;PMS1003;15950;51.112;6.966;2023-02-10T08:49:00;041;029;
26720;PMS1003;15950;51.112;6.966;2023-02-10T08:52:00;040;032;
26720;PMS1003;15950;51.112;6.966;2023-02-10T08:55:00;040;028;
26720;PMS1003;15950;51.112;6.966;2023-02-10T08:58:00;040;031;
26720;PMS1003;15950;51.112;6.966;2023-02-10T09:01:00;034;026;
26720;PMS1003;15950;51.112;6.966;2023-02-10T09:04:01;040;028;
26720;PMS1003;15950;51.112;6.966;2023-02-10T09:07:00;037;027;
26720;PMS1003;15950;51.112;6.966;2023-02-10T09:10:00;038;031;
26720;PMS1003;15950;51.112;6.966;2023-02-10T09:13:00;042;033;
26720;PMS1003;15950;51.112;6.966;2023-02-10T09:16:00;044;031;
26720;PMS1003;15950;51.112;6.966;2023-02-10T09:19:00;039;028;
26720;PMS1003;15950;51.112;6.966;2023-02-10T09:22:00;041;029;
26720;PMS1003;15950;51.112;6.966;2023-02-10T09:25:00;048;034;
26720;PMS1003;15950;51.112;6.966;2023-02-10T09:28:00;040;029;
26720;PMS1003;15950;51.112;6.966;2023-02-10T09:31:00;039;028;
26720;PMS1003;15950;51.112;6.966;2023-02-10T09:34:00;043;032;
26720;PMS1003;15950;51.112;6.966;2023-02-10T09:37:00;037;031;
26720;PMS1003;15950;51.112;6.966;2023-02-10T09:40:00;038;027;
26720;PMS1003;15950;51.112;6.966;2023-02-10T09:46:01;040;028;
26720;PMS1003;15950;51.112;6.966;2023-02-10T09:55:00;037;026;
26720;PMS1003;15950;51.112;6.966;2023-02-10T10:04:04;037;027;
26720;PMS1003;15950;51.112;6.966;2023-02-10T10:07:03;030;021;
26720;PMS1003;15950;51.112;6.966;2023-02-10T10:13:00;041;029;
26720;PMS1003;15950;51.112;6.966;2023-02-10T10:31:06;037;027;
26720;PMS1003;15950;51.112;6.966;2023-02-10T10:37:00;033;025;
26720;PMS1003;15950;51.112;6.966;2023-02-10T10:40:02;044;031;
26720;PMS1003;15950;51.112;6.966;2023-02-10T10:43:00;041;030;
26720;PMS1003;15950;51.112;6.966;2023-02-10T10:49:00;041;029;
26720;PMS1003;15950;51.112;6.966;2023-02-10T10:52:00;046;035;
26720;PMS1003;15950;51.112;6.966;2023-02-10T10:55:01;048;034;
26720;PMS1003;15950;51.112;6.966;2023-02-10T10:58:00;044;034;
26720;PMS1003;15950;51.112;6.966;2023-02-10T11:01:00;040;030;
26720;PMS1003;15950;51.112;6.966;2023-02-10T11:04:14;045;032;
26720;PMS1003;15950;51.112;6.966;2023-02-10T11:07:00;033;023;
26720;PMS1003;15950;51.112;6.966;2023-02-10T11:10:00;037;026;
26720;PMS1003;15950;51.112;6.966;2023-02-10T11:13:00;042;030;
26720;PMS1003;15950;51.112;6.966;2023-02-10T11:16:04;046;033;
26720;PMS1003;15950;51.112;6.966;2023-02-10T11:19:01;042;036;
26720;PMS1003;15950;51.112;6.966;2023-02-10T11:22:00;038;028;
26720;PMS1003;15950;51.112;6.966;2023-02-10T11:25:01;041;030;
26720;PMS1003;15950;51.112;6.966;2023-02-10T11:28:00;038;027;
26720;PMS1003;15950;51.112;6.966;2023-02-10T11:31:01;044;031;
26720;PMS1003;15950;51.112;6.966;2023-02-10T11:34:00;044;033;
26720;PMS1003;15950;51.112;6.966;2023-02-10T11:37:08;040;030;
26720;PMS1003;15950;51.112;6.966;2023-02-10T11:40:01;036;031;
26720;PMS1003;15950;51.112;6.966;2023-02-10T11:43:00;044;031;
26720;PMS1003;15950;51.112;6.966;2023-02-10T11:46:02;037;028;
26720;PMS1003;15950;51.112;6.966;2023-02-10T11:49:03;034;024;
26720;PMS1003;15950;51.112;6.966;2023-02-10T11:52:00;045;032;
26720;PMS1003;15950;51.112;6.966;2023-02-10T11:55:00;035;025;
26720;PMS1003;15950;51.112;6.966;2023-02-10T12:01:01;029;026;
26720;PMS1003;15950;51.112;6.966;2023-02-10T12:07:06;038;027;
26720;PMS1003;15950;51.112;6.966;2023-02-10T12:19:03;033;024;
26720;PMS1003;15950;51.112;6.966;2023-02-10T12:28:01;035;025;
26720;PMS1003;15950;51.112;6.966;2023-02-10T12:31:02;038;027;
26720;PMS1003;15950;51.112;6.966;2023-02-10T12:43:03;029;023;
26720;PMS1003;15950;51.112;6.966;2023-02-10T12:55:02;030;021;
26720;PMS1003;15950;51.112;6.966;2023-02-10T12:58:05;035;025;
26720;PMS1003;15950;51.112;6.966;2023-02-10T13:07:00;026;018;
26720;PMS1003;15950;51.112;6.966;2023-02-10T13:10:06;032;024;
26720;PMS1003;15950;51.112;6.966;2023-02-10T13:13:02;021;016;
26720;PMS1003;15950;51.112;6.966;2023-02-10T13:19:05;026;018;
26720;PMS1003;15950;51.112;6.966;2023-02-10T13:25:02;027;019;
26720;PMS1003;15950;51.112;6.966;2023-02-10T13:34:03;025;022;
26720;PMS1003;15950;51.112;6.966;2023-02-10T13:40:04;031;022;
26720;PMS1003;15950;51.112;6.966;2023-02-10T13:43:01;027;019;
26720;PMS1003;15950;51.112;6.966;2023-02-10T13:46:00;027;020;
26720;PMS1003;15950;51.112;6.966;2023-02-10T13:49:00;031;022;
26720;PMS1003;15950;51.112;6.966;2023-02-10T13:52:02;027;019;
26720;PMS1003;15950;51.112;6.966;2023-02-10T14:01:00;029;022;
26720;PMS1003;15950;51.112;6.966;2023-02-10T14:04:00;032;026;
26720;PMS1003;15950;51.112;6.966;2023-02-10T14:07:00;030;021;
26720;PMS1003;15950;51.112;6.966;2023-02-10T14:10:25;029;022;
26720;PMS1003;15950;51.112;6.966;2023-02-10T14:16:01;024;017;
26720;PMS1003;15950;51.112;6.966;2023-02-10T14:19:00;028;020;
26720;PMS1003;15950;51.112;6.966;2023-02-10T14:22:00;028;020;
26720;PMS1003;15950;51.112;6.966;2023-02-10T14:25:04;026;018;
26720;PMS1003;15950;51.112;6.966;2023-02-10T14:28:00;023;016;
26720;PMS1003;15950;51.112;6.966;2023-02-10T14:31:01;019;015;
26720;PMS1003;15950;51.112;6.966;2023-02-10T14:34:01;023;017;
26720;PMS1003;15950;51.112;6.966;2023-02-10T14:37:00;024;017;
26720;PMS1003;15950;51.112;6.966;2023-02-10T14:40:00;020;014;
26720;PMS1003;15950;51.112;6.966;2023-02-10T14:43:00;023;021;
26720;PMS1003;15950;51.112;6.966;2023-02-10T14:45:59;022;017;
26720;PMS1003;15950;51.112;6.966;2023-02-10T14:49:01;022;016;
26720;PMS1003;15950;51.112;6.966;2023-02-10T14:51:59;028;022;
26720;PMS1003;15950;51.112;6.966;2023-02-10T14:55:21;021;015;
26720;PMS1003;15950;51.112;6.966;2023-02-10T15:01:02;020;016;
26720;PMS1003;15950;51.112;6.966;2023-02-10T15:03:59;027;019;
26720;PMS1003;15950;51.112;6.966;2023-02-10T15:06:59;021;015;
26720;PMS1003;15950;51.112;6.966;2023-02-10T15:10:45;026;018;
26720;PMS1003;15950;51.112;6.966;2023-02-10T15:13:00;021;015;
26720;PMS1003;15950;51.112;6.966;2023-02-10T15:16:00;033;026;
26720;PMS1003;15950;51.112;6.966;2023-02-10T15:18:59;027;021;
26720;PMS1003;15950;51.112;6.966;2023-02-10T15:21:59;026;018;
26720;PMS1003;15950;51.112;6.966;2023-02-10T15:34:01;028;021;
26720;PMS1003;15950;51.112;6.966;2023-02-10T15:37:00;034;024;
26720;PMS1003;15950;51.112;6.966;2023-02-10T15:40:00;027;019;
26720;PMS1003;15950;51.112;6.966;2023-02-10T15:51:59;030;021;
26720;PMS1003;15950;51.112;6.966;2023-02-10T15:55:00;027;019;
26720;PMS1003;15950;51.112;6.966;2023-02-10T15:57:59;026;018;
26720;PMS1003;15950;51.112;6.966;2023-02-10T16:00:59;024;017;
26720;PMS1003;15950;51.112;6.966;2023-02-10T16:03:59;024;018;
26720;PMS1003;15950;51.112;6.966;2023-02-10T16:07:00;022;018;
26720;PMS1003;15950;51.112;6.966;2023-02-10T16:10:00;024;018;
26720;PMS1003;15950;51.112;6.966;2023-02-10T16:12:59;018;013;
26720;PMS1003;15950;51.112;6.966;2023-02-10T16:15:59;020;014;
26720;PMS1003;15950;51.112;6.966;2023-02-10T16:18:59;020;014;
26720;PMS1003;15950;51.112;6.966;2023-02-10T16:21:59;020;016;
26720;PMS1003;15950;51.112;6.966;2023-02-10T16:24:59;026;019;
26720;PMS1003;15950;51.112;6.966;2023-02-10T16:27:59;024;017;
26720;PMS1003;15950;51.112;6.966;2023-02-10T16:30:59;023;016;
26720;PMS1003;15950;51.112;6.966;2023-02-10T16:33:59;024;017;
26720;PMS1003;15950;51.112;6.966;2023-02-10T16:36:59;019;016;
26720;PMS1003;15950;51.112;6.966;2023-02-10T16:39:59;024;017;
26720;PMS1003;15950;51.112;6.966;2023-02-10T16:43:00;021;017;
26720;PMS1003;15950;51.112;6.966;2023-02-10T16:46:00;023;018;
26720;PMS1003;15950;51.112;6.966;2023-02-10T16:48:59;024;017;
26720;PMS1003;15950;51.112;6.966;2023-02-10T16:51:59;021;015;
26720;PMS1003;15950;51.112;6.966;2023-02-10T16:54:59;026;018;
26720;PMS1003;15950;51.112;6.966;2023-02-10T16:57:59;031;022;
26720;PMS1003;15950;51.112;6.966;2023-02-10T17:00:59;025;018;
26720;PMS1003;15950;51.112;6.966;2023-02-10T17:03:59;024;020;
26720;PMS1003;15950;51.112;6.966;2023-02-10T17:06:59;026;019;
26720;PMS1003;15950;51.112;6.966;2023-02-10T17:09:59;024;017;
26720;PMS1003;15950;51.112;6.966;2023-02-10T17:12:59;020;014;
26720;PMS1003;15950;51.112;6.966;2023-02-10T17:15:59;027;019;
26720;PMS1003;15950;51.112;6.966;2023-02-10T17:19:00;023;016;
26720;PMS1003;15950;51.112;6.966;2023-02-10T17:21:59;023;016;
26720;PMS1003;15950;51.112;6.966;2023-02-10T17:24:59;020;014;
26720;PMS1003;15950;51.112;6.966;2023-02-10T17:27:59;019;013;
26720;PMS1003;15950;51.112;6.966;2023-02-10T17:30:59;019;015;
26720;PMS1003;15950;51.112;6.966;2023-02-10T17:33:59;024;017;
26720;PMS1003;15950;51.112;6.966;2023-02-10T17:37:00;021;015;
26720;PMS1003;15950;51.112;6.966;2023-02-10T17:39:59;027;019;
26720;PMS1003;15950;51.112;6.966;2023-02-10T17:42:59;027;021;
26720;PMS1003;15950;51.112;6.966;2023-02-10T17:45:59;026;018;
26720;PMS1003;15950;51.112;6.966;2023-02-10T17:48:59;024;018;
26720;PMS1003;15950;51.112;6.966;2023-02-10T17:51:59;020;016;
26720;PMS1003;15950;51.112;6.966;2023-02-10T17:54:59;024;017;
26720;PMS1003;15950;51.112;6.966;2023-02-10T17:57:59;023;016;
26720;PMS1003;15950;51.112;6.966;2023-02-10T18:00:59;022;016;
26720;PMS1003;15950;51.112;6.966;2023-02-10T18:03:59;023;016;
26720;PMS1003;15950;51.112;6.966;2023-02-10T18:06:59;021;015;
26720;PMS1003;15950;51.112;6.966;2023-02-10T18:09:59;021;015;
26720;PMS1003;15950;51.112;6.966;2023-02-10T18:12:59;028;023;
26720;PMS1003;15950;51.112;6.966;2023-02-10T18:15:59;028;020;
26720;PMS1003;15950;51.112;6.966;2023-02-10T18:18:59;024;017;
26720;PMS1003;15950;51.112;6.966;2023-02-10T18:21:59;028;021;
26720;PMS1003;15950;51.112;6.966;2023-02-10T18:24:59;032;023;
26720;PMS1003;15950;51.112;6.966;2023-02-10T18:27:59;029;024;
26720;PMS1003;15950;51.112;6.966;2023-02-10T18:31:00;038;027;
26720;PMS1003;15950;51.112;6.966;2023-02-10T18:33:59;030;025;
26720;PMS1003;15950;51.112;6.966;2023-02-10T18:36:59;027;019;
26720;PMS1003;15950;51.112;6.966;2023-02-10T18:39:59;026;020;
26720;PMS1003;15950;51.112;6.966;2023-02-10T18:43:00;028;021;
26720;PMS1003;15950;51.112;6.966;2023-02-10T18:45:59;029;021;
26720;PMS1003;15950;51.112;6.966;2023-02-10T18:48:59;030;022;
26720;PMS1003;15950;51.112;6.966;2023-02-10T18:51:59;024;017;
26720;PMS1003;15950;51.112;6.966;2023-02-10T18:54:59;033;024;
26720;PMS1003;15950;51.112;6.966;2023-02-10T18:57:59;027;019;
26720;PMS1003;15950;51.112;6.966;2023-02-10T19:01:03;032;023;
26720;PMS1003;15950;51.112;6.966;2023-02-10T19:03:59;026;022;
26720;PMS1003;15950;51.112;6.966;2023-02-10T19:06:59;028;020;
26720;PMS1003;15950;51.112;6.966;2023-02-10T19:09:59;033;023;
26720;PMS1003;15950;51.112;6.966;2023-02-10T19:12:59;031;024;
26720;PMS1003;15950;51.112;6.966;2023-02-10T19:15:59;033;023;
26720;PMS1003;15950;51.112;6.966;2023-02-10T19:19:00;033;023;
26720;PMS1003;15950;51.112;6.966;2023-02-10T19:21:59;039;028;
26720;PMS1003;15950;51.112;6.966;2023-02-10T19:24:59;030;022;
26720;PMS1003;15950;51.112;6.966;2023-02-10T19:27:59;038;027;
26720;PMS1003;15950;51.112;6.966;2023-02-10T19:31:00;035;027;
26720;PMS1003;15950;51.112;6.966;2023-02-10T19:33:59;036;026;
26720;PMS1003;15950;51.112;6.966;2023-02-10T19:36:59;035;025;
26720;PMS1003;15950;51.112;6.966;2023-02-10T19:39:59;034;024;
26720;PMS1003;15950;51.112;6.966;2023-02-10T19:42:59;037;030;
26720;PMS1003;15950;51.112;6.966;2023-02-10T19:45:59;037;026;
26720;PMS1003;15950;51.112;6.966;2023-02-10T19:48:59;031;025;
26720;PMS1003;15950;51.112;6.966;2023-02-10T19:51:59;034;027;
26720;PMS1003;15950;51.112;6.966;2023-02-10T19:54:59;031;023;
26720;PMS1003;15950;51.112;6.966;2023-02-10T19:57:59;035;025;
26720;PMS1003;15950;51.112;6.966;2023-02-10T20:01:00;036;026;
26720;PMS1003;15950;51.112;6.966;2023-02-10T20:03:59;033;026;
26720;PMS1003;15950;51.112;6.966;2023-02-10T20:06:59;032;023;
26720;PMS1003;15950;51.112;6.966;2023-02-10T20:09:59;034;024;
26720;PMS1003;15950;51.112;6.966;2023-02-10T20:12:59;033;026;
26720;PMS1003;15950;51.112;6.966;2023-02-10T20:15:59;033;024;
26720;PMS1003;15950;51.112;6.966;2023-02-10T20:18:59;034;026;
26720;PMS1003;15950;51.112;6.966;2023-02-10T20:21:59;034;028;
26720;PMS1003;15950;51.112;6.966;2023-02-10T20:24:59;030;021;
26720;PMS1003;15950;51.112;6.966;2023-02-10T20:27:59;035;025;
26720;PMS1003;15950;51.112;6.966;2023-02-10T20:30:59;040;030;
26720;PMS1003;15950;51.112;6.966;2023-02-10T20:33:59;040;028;
26720;PMS1003;15950;51.112;6.966;2023-02-10T20:36:59;044;031;
26720;PMS1003;15950;51.112;6.966;2023-02-10T20:39:59;069;053;
26720;PMS1003;15950;51.112;6.966;2023-02-10T20:42:59;042;030;
26720;PMS1003;15950;51.112;6.966;2023-02-10T20:45:59;038;027;
26720;PMS1003;15950;51.112;6.966;2023-02-10T20:48:59;035;025;
26720;PMS1003;15950;51.112;6.966;2023-02-10T20:51:59;037;028;
26720;PMS1003;15950;51.112;6.966;2023-02-10T20:54:59;044;031;
26720;PMS1003;15950;51.112;6.966;2023-02-10T20:57:59;035;025;
26720;PMS1003;15950;51.112;6.966;2023-02-10T21:01:00;034;027;
26720;PMS1003;15950;51.112;6.966;2023-02-10T21:03:59;034;027;
26720;PMS1003;15950;51.112;6.966;2023-02-10T21:06:59;029;023;
26720;PMS1003;15950;51.112;6.966;2023-02-10T21:09:59;047;033;
26720;PMS1003;15950;51.112;6.966;2023-02-10T21:12:59;034;026;
26720;PMS1003;15950;51.112;6.966;2023-02-10T21:15:59;033;023;
26720;PMS1003;15950;51.112;6.966;2023-02-10T21:18:59;031;022;
26720;PMS1003;15950;51.112;6.966;2023-02-10T21:21:59;046;033;
26720;PMS1003;15950;51.112;6.966;2023-02-10T21:25:00;038;028;
26720;PMS1003;15950;51.112;6.966;2023-02-10T21:27:59;031;023;
26720;PMS1003;15950;51.112;6.966;2023-02-10T21:30:59;036;026;
26720;PMS1003;15950;51.112;6.966;2023-02-10T21:33:59;035;025;
26720;PMS1003;15950;51.112;6.966;2023-02-10T21:36:59;034;024;
26720;PMS1003;15950;51.112;6.966;2023-02-10T21:39:59;033;024;
26720;PMS1003;15950;51.112;6.966;2023-02-10T21:42:59;041;029;
26720;PMS1003;15950;51.112;6.966;2023-02-10T21:45:59;034;026;
26720;PMS1003;15950;51.112;6.966;2023-02-10T21:48:59;033;023;
26720;PMS1003;15950;51.112;6.966;2023-02-10T21:51:59;041;030;
26720;PMS1003;15950;51.112;6.966;2023-02-10T21:54:59;036;026;
26720;PMS1003;15950;51.112;6.966;2023-02-10T21:57:59;034;024;
26720;PMS1003;15950;51.112;6.966;2023-02-10T22:00:59;033;023;
26720;PMS1003;15950;51.112;6.966;2023-02-10T22:03:59;035;025;
26720;PMS1003;15950;51.112;6.966;2023-02-10T22:06:59;037;026;